sensor_id;sensor_type;location;lat;lon;timestamp;pressure;altitude;pressure_sealevel;temperature;humidity
70488;BME280;57976;48.174;16.370;2023-09-19T00:01:44;98688.39;;;21.07;90.07
70488;BME280;57976;48.174;16.370;2023-09-19T00:03:49;98684.52;;;21.01;90.84
70488;BME280;57976;48.174;16.370;2023-09-19T00:05:54;98687.73;;;20.94;91.57
70488;BME280;57976;48.174;16.370;2023-09-19T00:07:59;98689.39;;;20.87;92.26
70488;BME280;57976;48.174;16.370;2023-09-19T00:10:04;98698.61;;;20.78;93.47
70488;BME280;57976;48.174;16.370;2023-09-19T00:12:09;98694.84;;;20.68;94.29
70488;BME280;57976;48.174;16.370;2023-09-19T00:14:14;98695.52;;;20.57;95.91
70488;BME280;57976;48.174;16.370;2023-09-19T00:16:19;98700.08;;;20.44;97.89
70488;BME280;57976;48.174;16.370;2023-09-19T00:18:24;98707.04;;;20.31;99.82
70488;BME280;57976;48.174;16.370;2023-09-19T00:20:29;98705.45;;;20.19;100.00
70488;BME280;57976;48.174;16.370;2023-09-19T00:22:34;98709.67;;;20.06;100.00
70488;BME280;57976;48.174;16.370;2023-09-19T00:24:39;98709.23;;;19.94;100.00
70488;BME280;57976;48.174;16.370;2023-09-19T00:26:44;98713.02;;;19.77;100.00
70488;BME280;57976;48.174;16.370;2023-09-19T00:28:49;98715.01;;;19.62;100.00
70488;BME280;57976;48.174;16.370;2023-09-19T00:30:57;98714.29;;;19.49;100.00
70488;BME280;57976;48.174;16.370;2023-09-19T00:33:02;98715.48;;;19.38;100.00
70488;BME280;57976;48.174;16.370;2023-09-19T00:35:08;98716.60;;;19.27;100.00
70488;BME280;57976;48.174;16.370;2023-09-19T00:37:13;98722.33;;;19.17;100.00
70488;BME280;57976;48.174;16.370;2023-09-19T00:39:18;98724.94;;;19.09;100.00
70488;BME280;57976;48.174;16.370;2023-09-19T00:41:23;98725.81;;;19.02;100.00
70488;BME280;57976;48.174;16.370;2023-09-19T00:43:29;98725.30;;;18.95;100.00
70488;BME280;57976;48.174;16.370;2023-09-19T00:45:34;98729.84;;;18.86;100.00
70488;BME280;57976;48.174;16.370;2023-09-19T00:47:45;98732.36;;;18.79;100.00
70488;BME280;57976;48.174;16.370;2023-09-19T00:49:51;98736.30;;;18.73;100.00
70488;BME280;57976;48.174;16.370;2023-09-19T00:52:05;98733.42;;;18.68;100.00
70488;BME280;57976;48.174;16.370;2023-09-19T00:54:14;98737.52;;;18.64;100.00
70488;BME280;57976;48.174;16.370;2023-09-19T01:04:32;98739.67;;;18.60;100.00
70488;BME280;57976;48.174;16.370;2023-09-19T01:06:40;98746.79;;;18.59;100.00
70488;BME280;57976;48.174;16.370;2023-09-19T01:08:45;98746.27;;;18.61;100.00
70488;BME280;57976;48.174;16.370;2023-09-19T01:10:55;98746.69;;;18.62;100.00
70488;BME280;57976;48.174;16.370;2023-09-19T01:13:13;98749.34;;;18.63;100.00
70488;BME280;57976;48.174;16.370;2023-09-19T01:15:27;98748.91;;;18.65;100.00
70488;BME280;57976;48.174;16.370;2023-09-19T01:17:38;98749.66;;;18.66;100.00
70488;BME280;57976;48.174;16.370;2023-09-19T01:20:06;98753.17;;;18.66;100.00
70488;BME280;57976;48.174;16.370;2023-09-19T01:22:24;98753.55;;;18.64;100.00
70488;BME280;57976;48.174;16.370;2023-09-19T01:29:42;98751.82;;;18.63;100.00
70488;BME280;57976;48.174;16.370;2023-09-19T01:31:47;98751.40;;;18.64;100.00
70488;BME280;57976;48.174;16.370;2023-09-19T01:34:00;98755.39;;;18.65;100.00
70488;BME280;57976;48.174;16.370;2023-09-19T01:36:06;98757.92;;;18.64;100.00
70488;BME280;57976;48.174;16.370;2023-09-19T01:38:10;98756.30;;;18.64;100.00
70488;BME280;57976;48.174;16.370;2023-09-19T01:40:17;98756.03;;;18.61;100.00
70488;BME280;57976;48.174;16.370;2023-09-19T01:42:27;98751.11;;;18.57;100.00
70488;BME280;57976;48.174;16.370;2023-09-19T01:44:51;98752.34;;;18.52;100.00
70488;BME280;57976;48.174;16.370;2023-09-19T01:47:05;98755.92;;;18.45;100.00
70488;BME280;57976;48.174;16.370;2023-09-19T01:49:22;98752.18;;;18.29;100.00
70488;BME280;57976;48.174;16.370;2023-09-19T01:51:37;98757.04;;;18.14;100.00
70488;BME280;57976;48.174;16.370;2023-09-19T01:53:49;98752.80;;;17.98;100.00
70488;BME280;57976;48.174;16.370;2023-09-19T01:55:55;98759.46;;;17.83;100.00
70488;BME280;57976;48.174;16.370;2023-09-19T01:58:08;98764.95;;;17.73;100.00
70488;BME280;57976;48.174;16.370;2023-09-19T02:00:19;98760.96;;;17.62;100.00
70488;BME280;57976;48.174;16.370;2023-09-19T02:02:26;98763.00;;;17.53;100.00
70488;BME280;57976;48.174;16.370;2023-09-19T02:04:33;98766.91;;;17.46;100.00
70488;BME280;57976;48.174;16.370;2023-09-19T02:06:41;98761.48;;;17.39;100.00
70488;BME280;57976;48.174;16.370;2023-09-19T02:08:46;98757.38;;;17.33;100.00
70488;BME280;57976;48.174;16.370;2023-09-19T02:10:51;98752.88;;;17.29;100.00
70488;BME280;57976;48.174;16.370;2023-09-19T02:12:56;98745.29;;;17.24;100.00
70488;BME280;57976;48.174;16.370;2023-09-19T02:15:07;98743.50;;;17.21;100.00
70488;BME280;57976;48.174;16.370;2023-09-19T02:17:12;98744.56;;;17.19;100.00
70488;BME280;57976;48.174;16.370;2023-09-19T02:19:16;98748.50;;;17.20;100.00
70488;BME280;57976;48.174;16.370;2023-09-19T02:21:21;98744.23;;;17.18;100.00
70488;BME280;57976;48.174;16.370;2023-09-19T02:23:26;98740.73;;;17.19;100.00
70488;BME280;57976;48.174;16.370;2023-09-19T02:25:31;98737.98;;;17.18;100.00
70488;BME280;57976;48.174;16.370;2023-09-19T02:27:37;98737.99;;;17.19;100.00
70488;BME280;57976;48.174;16.370;2023-09-19T02:29:42;98736.64;;;17.18;100.00
70488;BME280;57976;48.174;16.370;2023-09-19T02:31:47;98740.96;;;17.19;100.00
70488;BME280;57976;48.174;16.370;2023-09-19T02:33:52;98744.30;;;17.19;100.00
70488;BME280;57976;48.174;16.370;2023-09-19T02:35:58;98745.80;;;17.18;100.00
70488;BME280;57976;48.174;16.370;2023-09-19T02:38:04;98747.89;;;17.17;100.00
70488;BME280;57976;48.174;16.370;2023-09-19T02:40:11;98750.52;;;17.15;100.00
70488;BME280;57976;48.174;16.370;2023-09-19T02:42:16;98748.46;;;17.15;100.00
70488;BME280;57976;48.174;16.370;2023-09-19T02:44:20;98752.94;;;17.15;100.00
70488;BME280;57976;48.174;16.370;2023-09-19T02:46:25;98758.70;;;17.16;100.00
70488;BME280;57976;48.174;16.370;2023-09-19T02:48:30;98757.21;;;17.17;100.00
70488;BME280;57976;48.174;16.370;2023-09-19T02:50:36;98759.21;;;17.19;100.00
70488;BME280;57976;48.174;16.370;2023-09-19T02:52:42;98760.80;;;17.22;100.00
70488;BME280;57976;48.174;16.370;2023-09-19T02:54:48;98764.91;;;17.25;100.00
70488;BME280;57976;48.174;16.370;2023-09-19T02:56:53;98767.10;;;17.28;100.00
70488;BME280;57976;48.174;16.370;2023-09-19T02:58:58;98762.81;;;17.31;100.00
70488;BME280;57976;48.174;16.370;2023-09-19T03:01:09;98761.48;;;17.34;100.00
70488;BME280;57976;48.174;16.370;2023-09-19T03:03:14;98762.14;;;17.37;100.00
70488;BME280;57976;48.174;16.370;2023-09-19T03:05:19;98759.77;;;17.39;100.00
70488;BME280;57976;48.174;16.370;2023-09-19T03:07:24;98751.52;;;17.41;100.00
70488;BME280;57976;48.174;16.370;2023-09-19T03:09:32;98755.91;;;17.45;100.00
70488;BME280;57976;48.174;16.370;2023-09-19T03:11:37;98759.20;;;17.47;100.00
70488;BME280;57976;48.174;16.370;2023-09-19T03:13:42;98755.85;;;17.50;100.00
70488;BME280;57976;48.174;16.370;2023-09-19T03:15:48;98760.04;;;17.53;100.00
70488;BME280;57976;48.174;16.370;2023-09-19T03:17:54;98762.27;;;17.56;100.00
70488;BME280;57976;48.174;16.370;2023-09-19T03:20:00;98758.17;;;17.59;100.00
70488;BME280;57976;48.174;16.370;2023-09-19T03:22:05;98758.42;;;17.60;100.00
70488;BME280;57976;48.174;16.370;2023-09-19T03:24:09;98760.59;;;17.63;100.00
70488;BME280;57976;48.174;16.370;2023-09-19T03:26:15;98758.98;;;17.65;100.00
70488;BME280;57976;48.174;16.370;2023-09-19T03:28:21;98758.14;;;17.68;100.00
70488;BME280;57976;48.174;16.370;2023-09-19T03:30:29;98760.41;;;17.71;100.00
70488;BME280;57976;48.174;16.370;2023-09-19T03:32:34;98759.63;;;17.73;100.00
70488;BME280;57976;48.174;16.370;2023-09-19T03:34:39;98760.56;;;17.76;100.00
70488;BME280;57976;48.174;16.370;2023-09-19T03:36:44;98756.31;;;17.79;100.00
70488;BME280;57976;48.174;16.370;2023-09-19T03:38:49;98761.33;;;17.81;100.00
70488;BME280;57976;48.174;16.370;2023-09-19T03:40:54;98762.12;;;17.83;100.00
70488;BME280;57976;48.174;16.370;2023-09-19T03:43:01;98758.70;;;17.84;100.00
70488;BME280;57976;48.174;16.370;2023-09-19T03:45:08;98759.27;;;17.86;100.00
70488;BME280;57976;48.174;16.370;2023-09-19T03:47:13;98761.54;;;17.87;100.00
70488;BME280;57976;48.174;16.370;2023-09-19T03:49:19;98761.70;;;17.89;100.00
70488;BME280;57976;48.174;16.370;2023-09-19T03:51:24;98759.72;;;17.90;100.00
70488;BME280;57976;48.174;16.370;2023-09-19T03:53:29;98756.81;;;17.93;100.00
70488;BME280;57976;48.174;16.370;2023-09-19T03:55:36;98752.56;;;17.93;100.00
70488;BME280;57976;48.174;16.370;2023-09-19T03:57:41;98755.15;;;17.95;100.00
70488;BME280;57976;48.174;16.370;2023-09-19T03:59:46;98759.91;;;17.96;100.00
70488;BME280;57976;48.174;16.370;2023-09-19T04:01:51;98761.96;;;17.97;100.00
70488;BME280;57976;48.174;16.370;2023-09-19T04:03:55;98763.64;;;17.99;100.00
70488;BME280;57976;48.174;16.370;2023-09-19T04:06:00;98768.34;;;18.00;100.00
70488;BME280;57976;48.174;16.370;2023-09-19T04:08:06;98766.18;;;18.02;100.00
70488;BME280;57976;48.174;16.370;2023-09-19T04:10:11;98766.30;;;18.03;100.00
70488;BME280;57976;48.174;16.370;2023-09-19T04:12:15;98766.69;;;18.03;100.00
70488;BME280;57976;48.174;16.370;2023-09-19T04:14:20;98773.11;;;18.05;100.00
70488;BME280;57976;48.174;16.370;2023-09-19T04:16:26;98776.56;;;18.06;100.00
70488;BME280;57976;48.174;16.370;2023-09-19T04:18:33;98778.09;;;18.07;100.00
70488;BME280;57976;48.174;16.370;2023-09-19T04:20:39;98783.16;;;18.08;100.00
70488;BME280;57976;48.174;16.370;2023-09-19T04:22:45;98788.72;;;18.08;100.00
70488;BME280;57976;48.174;16.370;2023-09-19T04:24:50;98794.64;;;18.08;100.00
70488;BME280;57976;48.174;16.370;2023-09-19T04:26:55;98796.85;;;18.10;100.00
70488;BME280;57976;48.174;16.370;2023-09-19T04:29:00;98802.64;;;18.11;100.00
70488;BME280;57976;48.174;16.370;2023-09-19T04:31:04;98809.53;;;18.12;100.00
70488;BME280;57976;48.174;16.370;2023-09-19T04:33:09;98812.19;;;18.12;100.00
70488;BME280;57976;48.174;16.370;2023-09-19T04:35:14;98817.69;;;18.11;100.00
70488;BME280;57976;48.174;16.370;2023-09-19T04:37:21;98817.88;;;18.10;100.00
70488;BME280;57976;48.174;16.370;2023-09-19T04:39:26;98819.55;;;18.08;100.00
70488;BME280;57976;48.174;16.370;2023-09-19T04:41:31;98824.98;;;18.06;100.00
70488;BME280;57976;48.174;16.370;2023-09-19T04:43:35;98828.20;;;18.04;100.00
70488;BME280;57976;48.174;16.370;2023-09-19T04:45:41;98839.86;;;18.05;100.00
70488;BME280;57976;48.174;16.370;2023-09-19T04:47:45;98836.02;;;18.04;100.00
70488;BME280;57976;48.174;16.370;2023-09-19T04:49:50;98835.46;;;18.03;100.00
70488;BME280;57976;48.174;16.370;2023-09-19T04:51:55;98839.95;;;18.03;100.00
70488;BME280;57976;48.174;16.370;2023-09-19T04:54:03;98836.77;;;18.03;100.00
70488;BME280;57976;48.174;16.370;2023-09-19T04:56:08;98841.87;;;18.00;100.00
70488;BME280;57976;48.174;16.370;2023-09-19T04:58:12;98832.66;;;18.00;100.00
70488;BME280;57976;48.174;16.370;2023-09-19T05:00:19;98841.02;;;17.99;100.00
70488;BME280;57976;48.174;16.370;2023-09-19T05:02:24;98841.05;;;17.98;100.00
70488;BME280;57976;48.174;16.370;2023-09-19T05:04:29;98848.32;;;17.95;100.00
70488;BME280;57976;48.174;16.370;2023-09-19T05:06:33;98852.19;;;17.94;100.00
70488;BME280;57976;48.174;16.370;2023-09-19T05:08:38;98857.45;;;17.92;100.00
70488;BME280;57976;48.174;16.370;2023-09-19T05:10:43;98866.27;;;17.89;100.00
70488;BME280;57976;48.174;16.370;2023-09-19T05:12:48;98865.14;;;17.88;100.00
70488;BME280;57976;48.174;16.370;2023-09-19T05:14:53;98870.58;;;17.85;100.00
70488;BME280;57976;48.174;16.370;2023-09-19T05:16:57;98865.56;;;17.81;100.00
70488;BME280;57976;48.174;16.370;2023-09-19T05:19:02;98875.31;;;17.79;100.00
70488;BME280;57976;48.174;16.370;2023-09-19T05:21:07;98873.13;;;17.75;100.00
70488;BME280;57976;48.174;16.370;2023-09-19T05:23:11;98873.73;;;17.70;100.00
70488;BME280;57976;48.174;16.370;2023-09-19T05:25:16;98872.00;;;17.63;100.00
70488;BME280;57976;48.174;16.370;2023-09-19T05:27:21;98879.50;;;17.56;100.00
70488;BME280;57976;48.174;16.370;2023-09-19T05:29:26;98877.54;;;17.49;100.00
70488;BME280;57976;48.174;16.370;2023-09-19T05:31:31;98876.20;;;17.42;100.00
70488;BME280;57976;48.174;16.370;2023-09-19T05:33:36;98879.89;;;17.38;100.00
70488;BME280;57976;48.174;16.370;2023-09-19T05:35:40;98880.08;;;17.34;100.00
70488;BME280;57976;48.174;16.370;2023-09-19T05:37:45;98876.95;;;17.29;100.00
70488;BME280;57976;48.174;16.370;2023-09-19T05:39:50;98873.53;;;17.27;100.00
70488;BME280;57976;48.174;16.370;2023-09-19T05:41:55;98879.34;;;17.26;100.00
70488;BME280;57976;48.174;16.370;2023-09-19T05:43:59;98870.54;;;17.23;100.00
70488;BME280;57976;48.174;16.370;2023-09-19T05:46:07;98873.11;;;17.21;100.00
70488;BME280;57976;48.174;16.370;2023-09-19T05:48:13;98873.69;;;17.21;100.00
70488;BME280;57976;48.174;16.370;2023-09-19T05:50:18;98881.08;;;17.21;100.00
70488;BME280;57976;48.174;16.370;2023-09-19T05:52:23;98878.59;;;17.21;100.00
70488;BME280;57976;48.174;16.370;2023-09-19T05:54:28;98880.48;;;17.21;100.00
70488;BME280;57976;48.174;16.370;2023-09-19T05:56:33;98878.75;;;17.21;100.00
70488;BME280;57976;48.174;16.370;2023-09-19T05:58:37;98878.11;;;17.21;100.00
70488;BME280;57976;48.174;16.370;2023-09-19T06:00:45;98873.05;;;17.21;100.00
70488;BME280;57976;48.174;16.370;2023-09-19T06:02:52;98873.44;;;17.22;100.00
70488;BME280;57976;48.174;16.370;2023-09-19T06:04:57;98871.02;;;17.23;100.00
70488;BME280;57976;48.174;16.370;2023-09-19T06:07:02;98873.88;;;17.24;100.00
70488;BME280;57976;48.174;16.370;2023-09-19T06:09:10;98873.30;;;17.26;100.00
70488;BME280;57976;48.174;16.370;2023-09-19T06:11:14;98871.83;;;17.27;100.00
70488;BME280;57976;48.174;16.370;2023-09-19T06:13:22;98878.04;;;17.30;100.00
70488;BME280;57976;48.174;16.370;2023-09-19T06:15:27;98875.09;;;17.32;100.00
70488;BME280;57976;48.174;16.370;2023-09-19T06:17:32;98879.83;;;17.37;100.00
70488;BME280;57976;48.174;16.370;2023-09-19T06:19:37;98880.73;;;17.42;100.00
70488;BME280;57976;48.174;16.370;2023-09-19T06:21:41;98881.17;;;17.48;100.00
70488;BME280;57976;48.174;16.370;2023-09-19T06:23:46;98891.42;;;17.52;100.00
70488;BME280;57976;48.174;16.370;2023-09-19T06:25:51;98893.71;;;17.56;100.00
70488;BME280;57976;48.174;16.370;2023-09-19T06:27:56;98894.52;;;17.61;100.00
70488;BME280;57976;48.174;16.370;2023-09-19T06:30:00;98900.64;;;17.66;100.00
70488;BME280;57976;48.174;16.370;2023-09-19T06:32:08;98898.86;;;17.71;100.00
70488;BME280;57976;48.174;16.370;2023-09-19T06:34:13;98899.38;;;17.75;100.00
70488;BME280;57976;48.174;16.370;2023-09-19T06:36:18;98904.01;;;17.82;100.00
70488;BME280;57976;48.174;16.370;2023-09-19T06:38:23;98909.78;;;17.90;100.00
70488;BME280;57976;48.174;16.370;2023-09-19T06:40:27;98909.23;;;17.95;100.00
70488;BME280;57976;48.174;16.370;2023-09-19T06:42:35;98910.73;;;18.00;100.00
70488;BME280;57976;48.174;16.370;2023-09-19T06:44:40;98908.66;;;18.05;100.00
70488;BME280;57976;48.174;16.370;2023-09-19T06:46:45;98915.20;;;18.09;100.00
70488;BME280;57976;48.174;16.370;2023-09-19T06:48:49;98914.85;;;18.12;100.00
70488;BME280;57976;48.174;16.370;2023-09-19T06:50:55;98915.45;;;18.13;100.00
70488;BME280;57976;48.174;16.370;2023-09-19T06:53:00;98915.31;;;18.15;100.00
70488;BME280;57976;48.174;16.370;2023-09-19T06:55:06;98917.70;;;18.17;100.00
70488;BME280;57976;48.174;16.370;2023-09-19T06:57:10;98922.38;;;18.17;100.00
70488;BME280;57976;48.174;16.370;2023-09-19T06:59:15;98928.33;;;18.18;100.00
70488;BME280;57976;48.174;16.370;2023-09-19T07:01:20;98928.28;;;18.19;100.00
70488;BME280;57976;48.174;16.370;2023-09-19T07:03:25;98929.22;;;18.22;100.00
70488;BME280;57976;48.174;16.370;2023-09-19T07:05:30;98929.81;;;18.24;100.00
70488;BME280;57976;48.174;16.370;2023-09-19T07:07:35;98927.68;;;18.27;100.00
70488;BME280;57976;48.174;16.370;2023-09-19T07:09:40;98934.11;;;18.29;100.00
70488;BME280;57976;48.174;16.370;2023-09-19T07:11:45;98932.56;;;18.32;100.00
70488;BME280;57976;48.174;16.370;2023-09-19T07:13:50;98936.02;;;18.34;100.00
70488;BME280;57976;48.174;16.370;2023-09-19T07:15:55;98935.61;;;18.37;100.00
70488;BME280;57976;48.174;16.370;2023-09-19T07:18:02;98944.33;;;18.41;100.00
70488;BME280;57976;48.174;16.370;2023-09-19T07:20:09;98943.16;;;18.44;100.00
70488;BME280;57976;48.174;16.370;2023-09-19T07:22:14;98946.37;;;18.45;100.00
70488;BME280;57976;48.174;16.370;2023-09-19T07:24:18;98953.09;;;18.48;100.00
70488;BME280;57976;48.174;16.370;2023-09-19T07:26:23;98956.52;;;18.51;100.00
70488;BME280;57976;48.174;16.370;2023-09-19T07:28:28;98955.06;;;18.54;100.00
70488;BME280;57976;48.174;16.370;2023-09-19T07:30:35;98963.94;;;18.58;100.00
70488;BME280;57976;48.174;16.370;2023-09-19T07:32:40;98969.14;;;18.61;100.00
70488;BME280;57976;48.174;16.370;2023-09-19T07:34:46;98971.05;;;18.64;100.00
70488;BME280;57976;48.174;16.370;2023-09-19T07:36:51;98971.82;;;18.68;100.00
70488;BME280;57976;48.174;16.370;2023-09-19T07:38:56;98974.85;;;18.71;100.00
70488;BME280;57976;48.174;16.370;2023-09-19T07:41:16;98978.39;;;18.74;100.00
70488;BME280;57976;48.174;16.370;2023-09-19T07:43:21;98979.74;;;18.77;100.00
70488;BME280;57976;48.174;16.370;2023-09-19T07:45:26;98980.23;;;18.79;100.00
70488;BME280;57976;48.174;16.370;2023-09-19T07:47:31;98984.75;;;18.83;100.00
70488;BME280;57976;48.174;16.370;2023-09-19T07:49:35;98982.88;;;18.87;100.00
70488;BME280;57976;48.174;16.370;2023-09-19T07:51:40;98987.00;;;18.92;100.00
70488;BME280;57976;48.174;16.370;2023-09-19T07:53:45;98987.36;;;18.97;100.00
70488;BME280;57976;48.174;16.370;2023-09-19T07:55:49;98989.05;;;19.06;100.00
70488;BME280;57976;48.174;16.370;2023-09-19T07:57:54;98988.61;;;19.13;100.00
70488;BME280;57976;48.174;16.370;2023-09-19T07:59:59;98989.17;;;19.20;100.00
70488;BME280;57976;48.174;16.370;2023-09-19T08:02:04;98985.10;;;19.28;100.00
70488;BME280;57976;48.174;16.370;2023-09-19T08:04:09;98990.05;;;19.36;100.00
70488;BME280;57976;48.174;16.370;2023-09-19T08:06:14;98993.17;;;19.45;100.00
70488;BME280;57976;48.174;16.370;2023-09-19T08:08:19;98993.10;;;19.54;100.00
70488;BME280;57976;48.174;16.370;2023-09-19T08:10:24;99001.96;;;19.62;100.00
70488;BME280;57976;48.174;16.370;2023-09-19T08:12:28;99006.10;;;19.72;100.00
70488;BME280;57976;48.174;16.370;2023-09-19T08:14:33;99005.63;;;19.83;100.00
70488;BME280;57976;48.174;16.370;2023-09-19T08:16:38;99002.17;;;19.90;100.00
70488;BME280;57976;48.174;16.370;2023-09-19T08:18:46;99003.88;;;19.98;100.00
70488;BME280;57976;48.174;16.370;2023-09-19T08:20:54;99010.36;;;20.07;100.00
70488;BME280;57976;48.174;16.370;2023-09-19T08:22:58;99012.80;;;20.13;100.00
70488;BME280;57976;48.174;16.370;2023-09-19T08:25:04;99019.89;;;20.18;100.00
70488;BME280;57976;48.174;16.370;2023-09-19T08:27:08;99020.40;;;20.23;100.00
70488;BME280;57976;48.174;16.370;2023-09-19T08:29:13;99028.90;;;20.28;100.00
70488;BME280;57976;48.174;16.370;2023-09-19T08:31:18;99029.71;;;20.31;100.00
70488;BME280;57976;48.174;16.370;2023-09-19T08:33:23;99028.24;;;20.35;100.00
70488;BME280;57976;48.174;16.370;2023-09-19T08:35:28;99031.61;;;20.39;100.00
70488;BME280;57976;48.174;16.370;2023-09-19T08:37:32;99039.23;;;20.42;100.00
70488;BME280;57976;48.174;16.370;2023-09-19T08:39:37;99040.31;;;20.46;100.00
70488;BME280;57976;48.174;16.370;2023-09-19T08:41:42;99041.40;;;20.47;100.00
70488;BME280;57976;48.174;16.370;2023-09-19T08:43:47;99041.60;;;20.47;100.00
70488;BME280;57976;48.174;16.370;2023-09-19T08:45:55;99038.69;;;20.47;100.00
70488;BME280;57976;48.174;16.370;2023-09-19T08:48:15;99038.90;;;20.47;100.00
70488;BME280;57976;48.174;16.370;2023-09-19T08:50:27;99046.33;;;20.44;100.00
70488;BME280;57976;48.174;16.370;2023-09-19T08:52:39;99050.92;;;20.43;100.00
70488;BME280;57976;48.174;16.370;2023-09-19T08:54:46;99048.60;;;20.41;100.00
70488;BME280;57976;48.174;16.370;2023-09-19T08:56:54;99055.04;;;20.40;100.00
70488;BME280;57976;48.174;16.370;2023-09-19T08:59:02;99047.25;;;20.39;100.00
70488;BME280;57976;48.174;16.370;2023-09-19T09:01:07;99053.48;;;20.37;100.00
70488;BME280;57976;48.174;16.370;2023-09-19T09:03:14;99050.01;;;20.39;100.00
70488;BME280;57976;48.174;16.370;2023-09-19T09:05:24;99058.66;;;20.39;100.00
70488;BME280;57976;48.174;16.370;2023-09-19T09:07:30;99052.76;;;20.37;100.00
70488;BME280;57976;48.174;16.370;2023-09-19T09:09:35;99058.66;;;20.39;100.00
70488;BME280;57976;48.174;16.370;2023-09-19T09:11:40;99055.31;;;20.37;100.00
70488;BME280;57976;48.174;16.370;2023-09-19T09:13:45;99052.66;;;20.36;100.00
70488;BME280;57976;48.174;16.370;2023-09-19T09:15:50;99053.73;;;20.34;100.00
70488;BME280;57976;48.174;16.370;2023-09-19T09:17:55;99051.04;;;20.31;100.00
70488;BME280;57976;48.174;16.370;2023-09-19T09:20:03;99052.22;;;20.32;100.00
70488;BME280;57976;48.174;16.370;2023-09-19T09:22:09;99054.17;;;20.34;100.00
70488;BME280;57976;48.174;16.370;2023-09-19T09:24:31;99054.61;;;20.35;100.00
70488;BME280;57976;48.174;16.370;2023-09-19T09:26:44;99056.23;;;20.35;100.00
70488;BME280;57976;48.174;16.370;2023-09-19T09:28:49;99060.73;;;20.34;100.00
70488;BME280;57976;48.174;16.370;2023-09-19T09:30:54;99062.08;;;20.36;100.00
70488;BME280;57976;48.174;16.370;2023-09-19T09:33:10;99064.89;;;20.42;100.00
70488;BME280;57976;48.174;16.370;2023-09-19T09:35:16;99068.68;;;20.50;100.00
70488;BME280;57976;48.174;16.370;2023-09-19T09:37:22;99069.81;;;20.57;100.00
70488;BME280;57976;48.174;16.370;2023-09-19T09:39:32;99073.59;;;20.64;100.00
70488;BME280;57976;48.174;16.370;2023-09-19T09:41:38;99072.61;;;20.74;100.00
70488;BME280;57976;48.174;16.370;2023-09-19T09:43:43;99078.71;;;20.85;99.46
70488;BME280;57976;48.174;16.370;2023-09-19T09:46:07;99074.59;;;20.93;98.98
70488;BME280;57976;48.174;16.370;2023-09-19T09:48:13;99078.75;;;21.03;98.09
70488;BME280;57976;48.174;16.370;2023-09-19T09:50:30;99081.34;;;21.13;97.37
70488;BME280;57976;48.174;16.370;2023-09-19T09:52:45;99080.94;;;21.23;97.09
70488;BME280;57976;48.174;16.370;2023-09-19T09:55:01;99087.29;;;21.34;95.50
70488;BME280;57976;48.174;16.370;2023-09-19T09:57:07;99082.27;;;21.45;95.22
70488;BME280;57976;48.174;16.370;2023-09-19T09:59:12;99081.18;;;21.57;94.25
70488;BME280;57976;48.174;16.370;2023-09-19T10:01:17;99075.94;;;21.67;93.13
70488;BME280;57976;48.174;16.370;2023-09-19T10:03:23;99081.47;;;21.76;93.34
70488;BME280;57976;48.174;16.370;2023-09-19T10:05:35;99079.50;;;21.84;91.71
70488;BME280;57976;48.174;16.370;2023-09-19T10:07:40;99080.82;;;21.93;91.33
70488;BME280;57976;48.174;16.370;2023-09-19T10:09:48;99071.55;;;22.00;90.21
70488;BME280;57976;48.174;16.370;2023-09-19T10:12:07;99070.48;;;22.06;88.64
70488;BME280;57976;48.174;16.370;2023-09-19T10:14:16;99072.94;;;22.11;88.76
70488;BME280;57976;48.174;16.370;2023-09-19T10:16:22;99069.85;;;22.18;87.75
70488;BME280;57976;48.174;16.370;2023-09-19T10:18:28;99070.80;;;22.21;88.23
70488;BME280;57976;48.174;16.370;2023-09-19T10:20:35;99074.89;;;22.26;86.98
70488;BME280;57976;48.174;16.370;2023-09-19T10:22:41;99073.81;;;22.26;86.14
70488;BME280;57976;48.174;16.370;2023-09-19T10:24:47;99074.40;;;22.26;85.92
70488;BME280;57976;48.174;16.370;2023-09-19T10:27:07;99073.66;;;22.31;86.65
70488;BME280;57976;48.174;16.370;2023-09-19T10:29:14;99068.92;;;22.40;86.49
70488;BME280;57976;48.174;16.370;2023-09-19T10:31:21;99062.88;;;22.49;86.88
70488;BME280;57976;48.174;16.370;2023-09-19T10:33:26;99062.05;;;22.58;86.31
70488;BME280;57976;48.174;16.370;2023-09-19T10:35:39;99064.09;;;22.68;85.52
70488;BME280;57976;48.174;16.370;2023-09-19T10:37:46;99069.25;;;22.74;84.42
70488;BME280;57976;48.174;16.370;2023-09-19T10:39:52;99074.31;;;22.78;82.89
70488;BME280;57976;48.174;16.370;2023-09-19T10:42:01;99067.51;;;22.80;83.50
70488;BME280;57976;48.174;16.370;2023-09-19T10:44:07;99070.38;;;22.87;84.29
70488;BME280;57976;48.174;16.370;2023-09-19T10:46:11;99072.41;;;22.96;83.04
70488;BME280;57976;48.174;16.370;2023-09-19T10:48:17;99073.35;;;23.04;82.78
70488;BME280;57976;48.174;16.370;2023-09-19T10:50:22;99063.84;;;23.10;81.66
70488;BME280;57976;48.174;16.370;2023-09-19T10:52:28;99065.02;;;23.15;81.40
70488;BME280;57976;48.174;16.370;2023-09-19T10:54:36;99068.19;;;23.24;81.75
70488;BME280;57976;48.174;16.370;2023-09-19T10:56:46;99071.30;;;23.36;79.96
70488;BME280;57976;48.174;16.370;2023-09-19T10:58:51;99069.73;;;23.39;79.05
70488;BME280;57976;48.174;16.370;2023-09-19T11:00:57;99065.88;;;23.46;78.54
70488;BME280;57976;48.174;16.370;2023-09-19T11:03:22;99065.54;;;23.52;78.90
70488;BME280;57976;48.174;16.370;2023-09-19T11:05:27;99062.30;;;23.63;78.67
70488;BME280;57976;48.174;16.370;2023-09-19T11:07:32;99062.53;;;23.74;76.97